Sacre-Coeur, Canada
Current Conditions -  °F | °C
As of 7:19 AM on Sunday 25 Jan 2015 (Local Time) from CYYY Reporting Station
Moderate Snow Moderate Snow  
Wind Chill: -18°   Ceiling: 200
Heat Index: -8°   Visibility: 0.5mi
Dew Point: -10°   Wind: 26mph
Humidity: 86%   Direction: 280°W
Pressure: 29.11"   Gusts: 36mph
Location:  48.43°N, 68.58°W
Report Text: CYYY 251219Z 28023G31KT 1/2SM SN BLSN VV002 M08/M10 A2911 RMK SN8 SLP861
Loading
Personal Weather Stations






























Interactive Weather Map New forecast layout! Learn more

10-Day Weather Forecast

Advertisements
Track Severe Weather on mobile